sensor_id;sensor_type;location;lat;lon;timestamp;temperature;humidity
14170;DHT22;63889;50.596;8.690;2023-04-01T00:02:24;10.80;99.90
14170;DHT22;63889;50.596;8.690;2023-04-01T00:04:49;10.80;99.90
14170;DHT22;63889;50.596;8.690;2023-04-01T00:07:15;10.90;99.90
14170;DHT22;63889;50.596;8.690;2023-04-01T00:09:40;10.90;99.90
14170;DHT22;63889;50.596;8.690;2023-04-01T00:12:06;10.90;99.90
14170;DHT22;63889;50.596;8.690;2023-04-01T00:14:31;10.90;99.90
14170;DHT22;63889;50.596;8.690;2023-04-01T00:16:57;10.90;99.90
14170;DHT22;63889;50.596;8.690;2023-04-01T00:19:27;10.90;99.90
14170;DHT22;63889;50.596;8.690;2023-04-01T00:21:53;10.80;99.90
14170;DHT22;63889;50.596;8.690;2023-04-01T00:24:18;10.90;99.90
14170;DHT22;63889;50.596;8.690;2023-04-01T00:26:44;10.90;99.90
14170;DHT22;63889;50.596;8.690;2023-04-01T00:29:10;10.90;99.90
14170;DHT22;63889;50.596;8.690;2023-04-01T00:31:35;10.90;99.90
14170;DHT22;63889;50.596;8.690;2023-04-01T00:34:01;10.80;99.90
14170;DHT22;63889;50.596;8.690;2023-04-01T00:36:27;10.80;99.90
14170;DHT22;63889;50.596;8.690;2023-04-01T00:38:53;10.80;99.90
14170;DHT22;63889;50.596;8.690;2023-04-01T00:41:19;10.70;99.90
14170;DHT22;63889;50.596;8.690;2023-04-01T00:43:48;10.70;99.90
14170;DHT22;63889;50.596;8.690;2023-04-01T00:46:14;10.70;99.90
14170;DHT22;63889;50.596;8.690;2023-04-01T00:48:43;10.70;99.90
14170;DHT22;63889;50.596;8.690;2023-04-01T00:51:15;10.70;99.90
14170;DHT22;63889;50.596;8.690;2023-04-01T00:53:46;10.70;99.90
14170;DHT22;63889;50.596;8.690;2023-04-01T00:56:15;10.70;99.90
14170;DHT22;63889;50.596;8.690;2023-04-01T00:58:46;10.70;99.90
14170;DHT22;63889;50.596;8.690;2023-04-01T01:01:13;10.70;99.90
14170;DHT22;63889;50.596;8.690;2023-04-01T01:03:39;10.80;99.90
14170;DHT22;63889;50.596;8.690;2023-04-01T01:06:09;10.80;99.90
14170;DHT22;63889;50.596;8.690;2023-04-01T01:11:42;10.80;99.90
14170;DHT22;63889;50.596;8.690;2023-04-01T01:17:12;10.80;99.90
14170;DHT22;63889;50.596;8.690;2023-04-01T01:25:18;10.60;99.90
14170;DHT22;63889;50.596;8.690;2023-04-01T01:36:09;10.50;99.90
14170;DHT22;63889;50.596;8.690;2023-04-01T01:38:38;10.50;99.90
14170;DHT22;63889;50.596;8.690;2023-04-01T01:41:05;10.50;99.90
14170;DHT22;63889;50.596;8.690;2023-04-01T01:43:36;10.50;99.90
14170;DHT22;63889;50.596;8.690;2023-04-01T01:46:11;10.50;99.90
14170;DHT22;63889;50.596;8.690;2023-04-01T01:48:37;10.40;99.90
14170;DHT22;63889;50.596;8.690;2023-04-01T01:51:07;10.40;99.90
14170;DHT22;63889;50.596;8.690;2023-04-01T01:53:32;10.30;99.90
14170;DHT22;63889;50.596;8.690;2023-04-01T01:55:58;10.30;99.90
14170;DHT22;63889;50.596;8.690;2023-04-01T01:58:40;10.30;99.90
14170;DHT22;63889;50.596;8.690;2023-04-01T02:01:10;10.30;99.90
14170;DHT22;63889;50.596;8.690;2023-04-01T02:03:37;10.30;99.90
14170;DHT22;63889;50.596;8.690;2023-04-01T02:06:07;10.20;99.90
14170;DHT22;63889;50.596;8.690;2023-04-01T02:08:39;10.20;99.90
14170;DHT22;63889;50.596;8.690;2023-04-01T02:11:09;10.30;99.90
14170;DHT22;63889;50.596;8.690;2023-04-01T02:16:18;10.30;99.90
14170;DHT22;63889;50.596;8.690;2023-04-01T02:18:48;10.30;99.90
14170;DHT22;63889;50.596;8.690;2023-04-01T02:21:17;10.20;99.90
14170;DHT22;63889;50.596;8.690;2023-04-01T02:23:45;10.30;99.90
14170;DHT22;63889;50.596;8.690;2023-04-01T02:26:13;10.20;99.90
14170;DHT22;63889;50.596;8.690;2023-04-01T02:28:40;10.20;99.90
14170;DHT22;63889;50.596;8.690;2023-04-01T02:31:08;10.20;99.90
14170;DHT22;63889;50.596;8.690;2023-04-01T02:33:34;10.20;99.90
14170;DHT22;63889;50.596;8.690;2023-04-01T02:36:00;10.20;99.90
14170;DHT22;63889;50.596;8.690;2023-04-01T02:38:26;10.20;99.90
14170;DHT22;63889;50.596;8.690;2023-04-01T02:40:58;10.20;99.90
14170;DHT22;63889;50.596;8.690;2023-04-01T02:43:24;10.10;99.90
14170;DHT22;63889;50.596;8.690;2023-04-01T02:45:49;10.10;99.90
14170;DHT22;63889;50.596;8.690;2023-04-01T02:48:15;10.20;99.90
14170;DHT22;63889;50.596;8.690;2023-04-01T02:50:41;10.20;99.90
14170;DHT22;63889;50.596;8.690;2023-04-01T02:53:06;10.30;99.90
14170;DHT22;63889;50.596;8.690;2023-04-01T02:55:33;10.20;99.90
14170;DHT22;63889;50.596;8.690;2023-04-01T02:57:58;10.20;99.90
14170;DHT22;63889;50.596;8.690;2023-04-01T03:00:24;10.20;99.90
14170;DHT22;63889;50.596;8.690;2023-04-01T03:02:50;10.20;99.90
14170;DHT22;63889;50.596;8.690;2023-04-01T03:05:16;10.10;99.90
14170;DHT22;63889;50.596;8.690;2023-04-01T03:07:41;10.10;99.90
14170;DHT22;63889;50.596;8.690;2023-04-01T03:10:07;10.10;99.90
14170;DHT22;63889;50.596;8.690;2023-04-01T03:12:33;10.10;99.90
14170;DHT22;63889;50.596;8.690;2023-04-01T03:14:59;10.20;99.90
14170;DHT22;63889;50.596;8.690;2023-04-01T03:17:24;10.20;99.90
14170;DHT22;63889;50.596;8.690;2023-04-01T03:19:50;10.20;99.90
14170;DHT22;63889;50.596;8.690;2023-04-01T03:22:15;10.20;99.90
14170;DHT22;63889;50.596;8.690;2023-04-01T03:24:41;10.10;99.90
14170;DHT22;63889;50.596;8.690;2023-04-01T03:27:07;10.10;99.90
14170;DHT22;63889;50.596;8.690;2023-04-01T03:29:32;10.10;99.90
14170;DHT22;63889;50.596;8.690;2023-04-01T03:31:58;10.10;99.90
14170;DHT22;63889;50.596;8.690;2023-04-01T03:34:24;10.20;99.90
14170;DHT22;63889;50.596;8.690;2023-04-01T03:36:51;10.20;99.90
14170;DHT22;63889;50.596;8.690;2023-04-01T03:39:16;10.20;99.90
14170;DHT22;63889;50.596;8.690;2023-04-01T03:41:44;10.20;99.90
14170;DHT22;63889;50.596;8.690;2023-04-01T03:44:11;10.20;99.90
14170;DHT22;63889;50.596;8.690;2023-04-01T03:46:36;10.20;99.90
14170;DHT22;63889;50.596;8.690;2023-04-01T03:49:02;10.20;99.90
14170;DHT22;63889;50.596;8.690;2023-04-01T03:51:28;10.20;99.90
14170;DHT22;63889;50.596;8.690;2023-04-01T03:53:53;10.20;99.90
14170;DHT22;63889;50.596;8.690;2023-04-01T03:56:19;10.20;99.90
14170;DHT22;63889;50.596;8.690;2023-04-01T03:58:45;10.20;99.90
14170;DHT22;63889;50.596;8.690;2023-04-01T04:01:21;10.20;99.90
14170;DHT22;63889;50.596;8.690;2023-04-01T04:03:47;10.20;99.90
14170;DHT22;63889;50.596;8.690;2023-04-01T04:06:14;10.20;99.90
14170;DHT22;63889;50.596;8.690;2023-04-01T04:08:40;10.20;99.90
14170;DHT22;63889;50.596;8.690;2023-04-01T04:11:06;10.10;99.90
14170;DHT22;63889;50.596;8.690;2023-04-01T04:13:31;10.10;99.90
14170;DHT22;63889;50.596;8.690;2023-04-01T04:15:58;10.10;99.90
14170;DHT22;63889;50.596;8.690;2023-04-01T04:18:23;10.10;99.90
14170;DHT22;63889;50.596;8.690;2023-04-01T04:20:49;10.20;99.90
14170;DHT22;63889;50.596;8.690;2023-04-01T04:23:16;10.20;99.90
14170;DHT22;63889;50.596;8.690;2023-04-01T04:25:53;10.20;99.90
14170;DHT22;63889;50.596;8.690;2023-04-01T04:28:19;10.20;99.90
14170;DHT22;63889;50.596;8.690;2023-04-01T04:30:44;10.20;99.90
14170;DHT22;63889;50.596;8.690;2023-04-01T04:33:10;10.10;99.90
14170;DHT22;63889;50.596;8.690;2023-04-01T04:35:35;10.10;99.90
14170;DHT22;63889;50.596;8.690;2023-04-01T04:38:01;10.10;99.90
14170;DHT22;63889;50.596;8.690;2023-04-01T04:40:26;10.10;99.90
14170;DHT22;63889;50.596;8.690;2023-04-01T04:42:52;10.10;99.90
14170;DHT22;63889;50.596;8.690;2023-04-01T04:45:17;10.10;99.90
14170;DHT22;63889;50.596;8.690;2023-04-01T04:47:43;10.10;99.90
14170;DHT22;63889;50.596;8.690;2023-04-01T04:50:09;10.10;99.90
14170;DHT22;63889;50.596;8.690;2023-04-01T04:52:35;10.10;99.90
14170;DHT22;63889;50.596;8.690;2023-04-01T04:55:00;10.10;99.90
14170;DHT22;63889;50.596;8.690;2023-04-01T04:57:26;10.10;99.90
14170;DHT22;63889;50.596;8.690;2023-04-01T04:59:51;10.00;99.90
14170;DHT22;63889;50.596;8.690;2023-04-01T05:02:17;10.00;99.90
14170;DHT22;63889;50.596;8.690;2023-04-01T05:04:42;10.00;99.90
14170;DHT22;63889;50.596;8.690;2023-04-01T05:07:08;10.00;99.90
14170;DHT22;63889;50.596;8.690;2023-04-01T05:09:33;10.00;99.90
14170;DHT22;63889;50.596;8.690;2023-04-01T05:11:59;10.00;99.90
14170;DHT22;63889;50.596;8.690;2023-04-01T05:14:25;10.00;99.90
14170;DHT22;63889;50.596;8.690;2023-04-01T05:16:50;10.00;99.90
14170;DHT22;63889;50.596;8.690;2023-04-01T05:19:16;10.00;99.90
14170;DHT22;63889;50.596;8.690;2023-04-01T05:21:41;9.90;99.90
14170;DHT22;63889;50.596;8.690;2023-04-01T05:24:08;9.90;99.90
14170;DHT22;63889;50.596;8.690;2023-04-01T05:26:35;9.90;99.90
14170;DHT22;63889;50.596;8.690;2023-04-01T05:29:02;9.80;99.90
14170;DHT22;63889;50.596;8.690;2023-04-01T05:31:28;9.80;99.90
14170;DHT22;63889;50.596;8.690;2023-04-01T05:33:53;9.80;99.90
14170;DHT22;63889;50.596;8.690;2023-04-01T05:36:19;9.80;99.90
14170;DHT22;63889;50.596;8.690;2023-04-01T05:38:45;9.80;99.90
14170;DHT22;63889;50.596;8.690;2023-04-01T05:41:12;9.80;99.90
14170;DHT22;63889;50.596;8.690;2023-04-01T05:43:39;9.80;99.90
14170;DHT22;63889;50.596;8.690;2023-04-01T05:46:05;9.80;99.90
14170;DHT22;63889;50.596;8.690;2023-04-01T05:48:33;9.80;99.90
14170;DHT22;63889;50.596;8.690;2023-04-01T05:51:00;9.80;99.90
14170;DHT22;63889;50.596;8.690;2023-04-01T05:53:25;9.80;99.90
14170;DHT22;63889;50.596;8.690;2023-04-01T05:55:51;9.70;99.90
14170;DHT22;63889;50.596;8.690;2023-04-01T05:58:17;9.70;99.90
14170;DHT22;63889;50.596;8.690;2023-04-01T06:00:43;9.80;99.90
14170;DHT22;63889;50.596;8.690;2023-04-01T06:03:11;9.80;99.90
14170;DHT22;63889;50.596;8.690;2023-04-01T06:05:42;9.90;99.90
14170;DHT22;63889;50.596;8.690;2023-04-01T06:08:16;9.90;99.90
14170;DHT22;63889;50.596;8.690;2023-04-01T06:19:22;10.10;99.90
14170;DHT22;63889;50.596;8.690;2023-04-01T06:22:12;10.00;99.90
14170;DHT22;63889;50.596;8.690;2023-04-01T06:30:19;10.10;99.90
14170;DHT22;63889;50.596;8.690;2023-04-01T06:32:58;10.10;99.90
14170;DHT22;63889;50.596;8.690;2023-04-01T06:35:31;10.10;99.90
14170;DHT22;63889;50.596;8.690;2023-04-01T06:41:03;10.20;99.90
14170;DHT22;63889;50.596;8.690;2023-04-01T06:54:40;10.40;99.90
14170;DHT22;63889;50.596;8.690;2023-04-01T06:57:41;10.30;99.90
14170;DHT22;63889;50.596;8.690;2023-04-01T07:00:22;10.40;99.90
14170;DHT22;63889;50.596;8.690;2023-04-01T07:03:16;10.50;99.90
14170;DHT22;63889;50.596;8.690;2023-04-01T07:05:39;10.40;99.90
14170;DHT22;63889;50.596;8.690;2023-04-01T07:08:10;10.40;99.90
14170;DHT22;63889;50.596;8.690;2023-04-01T07:10:47;10.40;99.90
14170;DHT22;63889;50.596;8.690;2023-04-01T07:13:45;10.40;99.90
14170;DHT22;63889;50.596;8.690;2023-04-01T07:16:19;10.40;99.90
14170;DHT22;63889;50.596;8.690;2023-04-01T07:18:47;10.40;99.90
14170;DHT22;63889;50.596;8.690;2023-04-01T07:21:26;10.40;99.90
14170;DHT22;63889;50.596;8.690;2023-04-01T07:23:57;10.40;99.90
14170;DHT22;63889;50.596;8.690;2023-04-01T07:26:25;10.50;99.90
14170;DHT22;63889;50.596;8.690;2023-04-01T07:28:53;10.50;99.90
14170;DHT22;63889;50.596;8.690;2023-04-01T07:56:20;10.80;99.90
14170;DHT22;63889;50.596;8.690;2023-04-01T07:58:47;10.90;99.90
14170;DHT22;63889;50.596;8.690;2023-04-01T08:01:26;10.90;99.90
14170;DHT22;63889;50.596;8.690;2023-04-01T08:15:25;10.90;99.90
14170;DHT22;63889;50.596;8.690;2023-04-01T08:17:55;10.90;99.90
14170;DHT22;63889;50.596;8.690;2023-04-01T08:25:39;10.90;99.90
14170;DHT22;63889;50.596;8.690;2023-04-01T08:28:20;10.90;99.90
14170;DHT22;63889;50.596;8.690;2023-04-01T08:30:58;11.00;99.90
14170;DHT22;63889;50.596;8.690;2023-04-01T08:33:29;11.10;99.90
14170;DHT22;63889;50.596;8.690;2023-04-01T08:36:03;11.00;99.90
14170;DHT22;63889;50.596;8.690;2023-04-01T08:44:27;11.00;99.90
14170;DHT22;63889;50.596;8.690;2023-04-01T08:49:40;11.00;99.90
14170;DHT22;63889;50.596;8.690;2023-04-01T08:57:33;11.10;99.90
14170;DHT22;63889;50.596;8.690;2023-04-01T09:08:22;11.10;99.90
14170;DHT22;63889;50.596;8.690;2023-04-01T09:11:08;11.10;99.90
14170;DHT22;63889;50.596;8.690;2023-04-01T09:19:24;11.30;99.90
14170;DHT22;63889;50.596;8.690;2023-04-01T09:24:29;11.30;99.90
14170;DHT22;63889;50.596;8.690;2023-04-01T09:27:14;11.30;99.90
14170;DHT22;63889;50.596;8.690;2023-04-01T09:35:39;11.30;99.90
14170;DHT22;63889;50.596;8.690;2023-04-01T09:41:31;11.30;99.90
14170;DHT22;63889;50.596;8.690;2023-04-01T09:52:45;11.40;99.90
14170;DHT22;63889;50.596;8.690;2023-04-01T09:55:56;11.40;99.90
14170;DHT22;63889;50.596;8.690;2023-04-01T10:01:51;11.40;99.90
14170;DHT22;63889;50.596;8.690;2023-04-01T10:24:12;11.60;99.90
14170;DHT22;63889;50.596;8.690;2023-04-01T10:27:07;11.60;99.90
14170;DHT22;63889;50.596;8.690;2023-04-01T10:29:56;11.50;99.90
14170;DHT22;63889;50.596;8.690;2023-04-01T10:32:39;11.50;99.90
14170;DHT22;63889;50.596;8.690;2023-04-01T10:38:06;11.70;99.90
14170;DHT22;63889;50.596;8.690;2023-04-01T10:41:06;11.70;99.90
14170;DHT22;63889;50.596;8.690;2023-04-01T11:16:41;11.70;99.90
14170;DHT22;63889;50.596;8.690;2023-04-01T11:22:15;11.80;99.90
14170;DHT22;63889;50.596;8.690;2023-04-01T11:30:41;11.70;99.90
14170;DHT22;63889;50.596;8.690;2023-04-01T11:33:34;11.80;99.90
14170;DHT22;63889;50.596;8.690;2023-04-01T11:38:53;11.80;99.90
14170;DHT22;63889;50.596;8.690;2023-04-01T11:41:49;11.80;99.90
14170;DHT22;63889;50.596;8.690;2023-04-01T11:44:20;11.70;99.90
14170;DHT22;63889;50.596;8.690;2023-04-01T11:52:43;11.60;99.90
14170;DHT22;63889;50.596;8.690;2023-04-01T11:58:15;11.50;99.90
14170;DHT22;63889;50.596;8.690;2023-04-01T12:06:30;11.50;99.90
14170;DHT22;63889;50.596;8.690;2023-04-01T12:09:16;11.60;99.90
14170;DHT22;63889;50.596;8.690;2023-04-01T12:17:34;11.80;99.90
14170;DHT22;63889;50.596;8.690;2023-04-01T12:20:14;11.80;99.90
14170;DHT22;63889;50.596;8.690;2023-04-01T12:23:03;12.00;99.90
14170;DHT22;63889;50.596;8.690;2023-04-01T12:31:38;12.20;99.90
14170;DHT22;63889;50.596;8.690;2023-04-01T12:34:41;12.30;99.90
14170;DHT22;63889;50.596;8.690;2023-04-01T12:40:17;12.20;99.90
14170;DHT22;63889;50.596;8.690;2023-04-01T12:45:34;12.20;99.90
14170;DHT22;63889;50.596;8.690;2023-04-01T12:48:22;12.10;99.90
14170;DHT22;63889;50.596;8.690;2023-04-01T12:51:16;12.10;99.90
14170;DHT22;63889;50.596;8.690;2023-04-01T12:59:10;12.10;99.90
14170;DHT22;63889;50.596;8.690;2023-04-01T13:01:59;12.10;99.90
14170;DHT22;63889;50.596;8.690;2023-04-01T13:13:06;12.10;99.90
14170;DHT22;63889;50.596;8.690;2023-04-01T13:15:58;12.20;99.90
14170;DHT22;63889;50.596;8.690;2023-04-01T13:18:52;12.10;99.90
14170;DHT22;63889;50.596;8.690;2023-04-01T13:29:40;12.60;99.90
14170;DHT22;63889;50.596;8.690;2023-04-01T13:43:42;13.00;99.90
14170;DHT22;63889;50.596;8.690;2023-04-01T13:49:13;13.20;99.90
14170;DHT22;63889;50.596;8.690;2023-04-01T13:57:26;13.30;99.90
14170;DHT22;63889;50.596;8.690;2023-04-01T14:03:11;12.90;99.90
14170;DHT22;63889;50.596;8.690;2023-04-01T14:05:44;12.80;99.90
14170;DHT22;63889;50.596;8.690;2023-04-01T14:30:27;13.80;99.90
14170;DHT22;63889;50.596;8.690;2023-04-01T14:33:34;14.00;99.90
14170;DHT22;63889;50.596;8.690;2023-04-01T14:39:13;14.10;99.90
14170;DHT22;63889;50.596;8.690;2023-04-01T14:45:02;13.40;99.90
14170;DHT22;63889;50.596;8.690;2023-04-01T14:47:46;13.20;99.90
14170;DHT22;63889;50.596;8.690;2023-04-01T14:50:21;13.10;99.90
14170;DHT22;63889;50.596;8.690;2023-04-01T14:53:08;13.10;99.90
14170;DHT22;63889;50.596;8.690;2023-04-01T14:55:51;13.10;99.90
14170;DHT22;63889;50.596;8.690;2023-04-01T14:58:19;13.10;99.90
14170;DHT22;63889;50.596;8.690;2023-04-01T15:11:44;13.40;99.90
14170;DHT22;63889;50.596;8.690;2023-04-01T15:17:00;13.50;99.90
14170;DHT22;63889;50.596;8.690;2023-04-01T15:22:40;13.50;99.90
14170;DHT22;63889;50.596;8.690;2023-04-01T15:25:26;13.50;99.90
14170;DHT22;63889;50.596;8.690;2023-04-01T15:30:32;13.50;99.90
14170;DHT22;63889;50.596;8.690;2023-04-01T15:33:20;13.50;99.90
14170;DHT22;63889;50.596;8.690;2023-04-01T15:43:43;13.30;99.90
14170;DHT22;63889;50.596;8.690;2023-04-01T15:51:36;13.60;99.90
14170;DHT22;63889;50.596;8.690;2023-04-01T15:54:08;13.70;99.90
14170;DHT22;63889;50.596;8.690;2023-04-01T15:57:04;13.70;99.90
14170;DHT22;63889;50.596;8.690;2023-04-01T16:05:42;13.70;99.90
14170;DHT22;63889;50.596;8.690;2023-04-01T16:19:37;13.50;99.90
14170;DHT22;63889;50.596;8.690;2023-04-01T16:22:33;13.40;99.90
14170;DHT22;63889;50.596;8.690;2023-04-01T16:36:11;13.10;99.90
14170;DHT22;63889;50.596;8.690;2023-04-01T16:38:50;13.10;99.90
14170;DHT22;63889;50.596;8.690;2023-04-01T16:41:24;13.10;99.90
14170;DHT22;63889;50.596;8.690;2023-04-01T16:43:55;13.00;99.90
14170;DHT22;63889;50.596;8.690;2023-04-01T16:46:39;12.90;99.90
14170;DHT22;63889;50.596;8.690;2023-04-01T16:59:40;13.00;99.90
14170;DHT22;63889;50.596;8.690;2023-04-01T17:02:13;12.90;99.90
14170;DHT22;63889;50.596;8.690;2023-04-01T17:04:44;12.90;99.90
14170;DHT22;63889;50.596;8.690;2023-04-01T17:20:31;12.80;99.90
14170;DHT22;63889;50.596;8.690;2023-04-01T17:23:24;12.80;99.90
14170;DHT22;63889;50.596;8.690;2023-04-01T17:28:39;12.60;99.90
14170;DHT22;63889;50.596;8.690;2023-04-01T17:34:03;12.60;99.90
14170;DHT22;63889;50.596;8.690;2023-04-01T17:36:44;12.50;99.90
14170;DHT22;63889;50.596;8.690;2023-04-01T17:39:37;12.50;99.90
14170;DHT22;63889;50.596;8.690;2023-04-01T17:45:04;12.40;99.90
14170;DHT22;63889;50.596;8.690;2023-04-01T17:53:09;12.40;99.90
14170;DHT22;63889;50.596;8.690;2023-04-01T17:58:46;12.40;99.90
14170;DHT22;63889;50.596;8.690;2023-04-01T18:04:08;12.50;99.90
14170;DHT22;63889;50.596;8.690;2023-04-01T18:23:19;12.20;99.90
14170;DHT22;63889;50.596;8.690;2023-04-01T18:25:48;12.20;99.90
14170;DHT22;63889;50.596;8.690;2023-04-01T18:28:32;12.20;99.90
14170;DHT22;63889;50.596;8.690;2023-04-01T18:33:56;12.20;99.90
14170;DHT22;63889;50.596;8.690;2023-04-01T18:36:37;12.20;99.90
14170;DHT22;63889;50.596;8.690;2023-04-01T18:39:32;12.20;99.90
14170;DHT22;63889;50.596;8.690;2023-04-01T18:42:00;12.20;99.90
14170;DHT22;63889;50.596;8.690;2023-04-01T18:44:46;12.20;99.90
14170;DHT22;63889;50.596;8.690;2023-04-01T18:50:26;12.30;99.90
14170;DHT22;63889;50.596;8.690;2023-04-01T18:53:27;12.30;99.90
14170;DHT22;63889;50.596;8.690;2023-04-01T18:56:06;12.20;99.90
14170;DHT22;63889;50.596;8.690;2023-04-01T18:58:33;12.20;99.90
14170;DHT22;63889;50.596;8.690;2023-04-01T19:01:08;12.10;99.90
14170;DHT22;63889;50.596;8.690;2023-04-01T19:06:26;12.00;99.90
14170;DHT22;63889;50.596;8.690;2023-04-01T19:08:53;12.00;99.90
14170;DHT22;63889;50.596;8.690;2023-04-01T19:22:30;12.10;99.90
14170;DHT22;63889;50.596;8.690;2023-04-01T19:27:51;12.10;99.90
14170;DHT22;63889;50.596;8.690;2023-04-01T19:33:36;12.10;99.90
14170;DHT22;63889;50.596;8.690;2023-04-01T19:41:30;12.10;99.90
14170;DHT22;63889;50.596;8.690;2023-04-01T19:46:44;12.00;99.90
14170;DHT22;63889;50.596;8.690;2023-04-01T19:59:38;12.00;99.90
14170;DHT22;63889;50.596;8.690;2023-04-01T20:04:55;12.00;99.90
14170;DHT22;63889;50.596;8.690;2023-04-01T20:07:35;11.90;99.90
14170;DHT22;63889;50.596;8.690;2023-04-01T20:10:30;12.00;99.90
14170;DHT22;63889;50.596;8.690;2023-04-01T20:15:39;12.00;99.90
14170;DHT22;63889;50.596;8.690;2023-04-01T20:18:26;11.90;99.90
14170;DHT22;63889;50.596;8.690;2023-04-01T20:21:02;11.90;99.90
14170;DHT22;63889;50.596;8.690;2023-04-01T20:26:12;11.80;99.90
14170;DHT22;63889;50.596;8.690;2023-04-01T20:29:12;11.90;99.90
14170;DHT22;63889;50.596;8.690;2023-04-01T20:31:41;11.80;99.90
14170;DHT22;63889;50.596;8.690;2023-04-01T20:34:31;11.90;99.90
14170;DHT22;63889;50.596;8.690;2023-04-01T20:37:36;11.80;99.90
14170;DHT22;63889;50.596;8.690;2023-04-01T20:40:20;11.80;99.90
14170;DHT22;63889;50.596;8.690;2023-04-01T20:43:07;11.80;99.90
14170;DHT22;63889;50.596;8.690;2023-04-01T20:51:30;11.70;99.90
14170;DHT22;63889;50.596;8.690;2023-04-01T20:59:47;11.80;99.90
14170;DHT22;63889;50.596;8.690;2023-04-01T21:07:41;11.70;99.90
14170;DHT22;63889;50.596;8.690;2023-04-01T21:48:22;11.50;99.90
14170;DHT22;63889;50.596;8.690;2023-04-01T21:59:43;11.50;99.90
14170;DHT22;63889;50.596;8.690;2023-04-01T22:02:54;11.50;99.90
14170;DHT22;63889;50.596;8.690;2023-04-01T22:05:28;11.40;99.90
14170;DHT22;63889;50.596;8.690;2023-04-01T22:10:41;11.50;99.90
14170;DHT22;63889;50.596;8.690;2023-04-01T22:13:19;11.50;99.90
14170;DHT22;63889;50.596;8.690;2023-04-01T22:16:12;11.50;99.90
14170;DHT22;63889;50.596;8.690;2023-04-01T22:21:44;11.40;99.90
14170;DHT22;63889;50.596;8.690;2023-04-01T22:27:15;11.40;99.90
14170;DHT22;63889;50.596;8.690;2023-04-01T22:35:39;11.40;99.90
14170;DHT22;63889;50.596;8.690;2023-04-01T22:43:37;11.30;99.90
14170;DHT22;63889;50.596;8.690;2023-04-01T22:46:21;11.30;99.90
14170;DHT22;63889;50.596;8.690;2023-04-01T22:54:33;11.30;99.90
14170;DHT22;63889;50.596;8.690;2023-04-01T22:57:03;11.30;99.90
14170;DHT22;63889;50.596;8.690;2023-04-01T22:59:54;11.30;99.90
14170;DHT22;63889;50.596;8.690;2023-04-01T23:02:31;11.30;99.90
14170;DHT22;63889;50.596;8.690;2023-04-01T23:05:00;11.30;99.90
14170;DHT22;63889;50.596;8.690;2023-04-01T23:10:30;11.20;99.90
14170;DHT22;63889;50.596;8.690;2023-04-01T23:13:06;11.10;99.90
14170;DHT22;63889;50.596;8.690;2023-04-01T23:15:36;11.10;99.90
14170;DHT22;63889;50.596;8.690;2023-04-01T23:18:25;11.10;99.90
14170;DHT22;63889;50.596;8.690;2023-04-01T23:23:59;11.10;99.90
14170;DHT22;63889;50.596;8.690;2023-04-01T23:26:43;11.10;99.90
14170;DHT22;63889;50.596;8.690;2023-04-01T23:29:17;11.10;99.90
14170;DHT22;63889;50.596;8.690;2023-04-01T23:31:45;11.10;99.90
14170;DHT22;63889;50.596;8.690;2023-04-01T23:37:12;11.10;99.90
14170;DHT22;63889;50.596;8.690;2023-04-01T23:39:40;11.00;99.90
14170;DHT22;63889;50.596;8.690;2023-04-01T23:42:21;11.00;99.90
14170;DHT22;63889;50.596;8.690;2023-04-01T23:44:57;11.00;99.90
14170;DHT22;63889;50.596;8.690;2023-04-01T23:47:33;10.90;99.90
14170;DHT22;63889;50.596;8.690;2023-04-01T23:50:09;11.00;99.90
14170;DHT22;63889;50.596;8.690;2023-04-01T23:52:40;10.90;99.90
14170;DHT22;63889;50.596;8.690;2023-04-01T23:55:27;11.00;99.90
